Time;durP1;ratioP1;P1;durP2;ratioP2;P2;SDS_P1;SDS_P2;PMS_P1;PMS_P2;Temp;Humidity;BMP_temperature;BMP_pressure;BME280_temperature;BME280_humidity;BME280_pressure;Samples;Min_cycle;Max_cycle;Signal;HPM_P1;HPM_P2
2023/06/13 00:01:03;;;;;;;5.13;1.23;;;13.40;99.90;;;;;;5033604;28;19987;-91
2023/06/13 00:03:29;;;;;;;4.93;0.80;;;13.40;99.90;;;;;;5033808;28;20022;-93
2023/06/13 00:05:55;;;;;;;3.60;1.20;;;13.40;99.90;;;;;;5033835;28;20402;-93
2023/06/13 00:08:21;;;;;;;;;;;13.40;99.90;;;;;;5016340;28;20485;-94
2023/06/13 00:10:51;;;;;;;2.30;1.02;;;13.40;99.90;;;;;;5034174;28;19915;-92
2023/06/13 00:13:18;;;;;;;3.15;0.90;;;13.30;99.90;;;;;;5015708;28;20041;-94
2023/06/13 00:15:53;;;;;;;2.47;0.88;;;13.30;99.90;;;;;;5020389;28;20052;-92
2023/06/13 00:18:19;;;;;;;4.63;1.13;;;13.30;99.90;;;;;;5039906;28;20523;-93
2023/06/13 00:20:48;;;;;;;7.88;1.70;;;13.30;99.90;;;;;;5034669;28;20116;-93
2023/06/13 00:23:15;;;;;;;4.13;0.85;;;13.30;99.90;;;;;;5023370;28;20092;-92
2023/06/13 00:25:41;;;;;;;2.05;0.90;;;13.30;99.90;;;;;;5017182;28;20025;-94
2023/06/13 00:28:06;;;;;;;;;;;13.20;99.90;;;;;;5019359;28;20040;-93
2023/06/13 00:30:32;;;;;;;2.92;0.93;;;13.20;99.90;;;;;;5016842;28;19905;-94
2023/06/13 00:32:59;;;;;;;;;;;13.20;99.90;;;;;;5031266;28;20014;-93
2023/06/13 00:35:25;;;;;;;2.85;0.93;;;13.20;99.90;;;;;;5039168;28;19897;-90
2023/06/13 00:37:54;;;;;;;;;;;13.20;99.90;;;;;;5025773;28;20072;-93
2023/06/13 00:40:20;;;;;;;4.60;1.08;;;13.20;99.90;;;;;;5034748;28;19905;-92
2023/06/13 00:42:46;;;;;;;3.95;1.52;;;13.20;99.90;;;;;;5033508;28;20045;-93
2023/06/13 00:45:24;;;;;;;10.25;1.20;;;13.20;99.90;;;;;;5016085;28;20068;-92
2023/06/13 00:48:04;;;;;;;3.72;0.95;;;13.10;99.90;;;;;;5015545;28;20025;-91
2023/06/13 00:50:33;;;;;;;1.45;0.80;;;13.10;99.90;;;;;;5017992;28;20042;-91
2023/06/13 00:53:00;;;;;;;7.53;1.40;;;13.10;99.90;;;;;;5018983;28;20494;-90
2023/06/13 00:55:27;;;;;;;4.05;0.95;;;13.00;99.90;;;;;;5022126;28;20053;-93
2023/06/13 00:57:57;;;;;;;3.65;1.02;;;13.00;99.90;;;;;;5019455;28;20490;-93
2023/06/13 01:00:25;;;;;;;3.47;1.10;;;12.90;99.90;;;;;;5019955;28;20029;-93
2023/06/13 01:02:57;;;;;;;7.90;1.20;;;12.90;99.90;;;;;;5019557;28;20113;-93
2023/06/13 01:05:28;;;;;;;6.85;1.40;;;12.90;99.90;;;;;;5019099;28;20052;-94
2023/06/13 01:07:57;;;;;;;2.03;1.00;;;12.90;99.90;;;;;;5018025;28;20060;-93
2023/06/13 01:10:25;;;;;;;3.42;1.13;;;12.90;99.90;;;;;;5017485;28;20508;-94
2023/06/13 01:13:07;;;;;;;5.10;0.80;;;12.90;99.90;;;;;;5019206;28;20067;-94
2023/06/13 01:15:38;;;;;;;6.10;1.98;;;12.90;99.90;;;;;;5036922;28;20230;-94
2023/06/13 01:18:08;;;;;;;8.52;1.50;;;12.90;99.90;;;;;;5019733;28;20021;-94
2023/06/13 01:20:36;;;;;;;2.30;1.25;;;12.90;99.90;;;;;;5017752;28;20034;-94
2023/06/13 01:23:40;;;;;;;2.60;1.27;;;13.00;99.90;;;;;;5019979;28;20075;-94
2023/06/13 01:26:21;;;;;;;5.38;1.15;;;12.90;99.90;;;;;;5036446;28;20062;-91
2023/06/13 01:28:51;;;;;;;6.45;1.77;;;13.00;99.90;;;;;;5016435;28;20071;-91
2023/06/13 01:31:19;;;;;;;6.95;0.75;;;13.00;99.90;;;;;;5036886;28;20026;-91
2023/06/13 01:33:46;;;;;;;4.30;1.10;;;13.00;99.90;;;;;;5018602;28;20041;-90
2023/06/13 01:36:12;;;;;;;3.63;1.20;;;13.00;99.90;;;;;;5019900;28;20022;-92
2023/06/13 01:38:39;;;;;;;2.35;1.10;;;13.00;99.90;;;;;;5018701;28;20029;-91
2023/06/13 01:41:05;;;;;;;2.83;0.98;;;13.00;99.90;;;;;;5036296;28;20056;-90
2023/06/13 01:43:31;;;;;;;;;;;13.00;99.90;;;;;;5018986;28;20409;-90
2023/06/13 01:46:12;;;;;;;4.10;1.10;;;13.00;99.90;;;;;;5018596;28;20003;-90
2023/06/13 01:48:55;;;;;;;5.50;1.30;;;13.00;99.90;;;;;;5018525;28;20025;-91
2023/06/13 01:51:39;;;;;;;2.53;1.00;;;13.00;99.90;;;;;;5035525;28;20079;-92
2023/06/13 01:54:15;;;;;;;7.07;1.38;;;13.00;99.90;;;;;;5018237;28;20112;-92
2023/06/13 01:56:42;;;;;;;6.13;1.45;;;12.90;99.90;;;;;;5018268;28;20029;-92
2023/06/13 01:59:11;;;;;;;4.57;1.10;;;12.90;99.90;;;;;;5018025;28;20033;-89
2023/06/13 02:01:39;;;;;;;2.28;0.90;;;12.90;99.90;;;;;;5017755;28;20038;-90
2023/06/13 02:04:05;;;;;;;6.22;1.10;;;12.90;99.90;;;;;;5034911;28;20030;-90
2023/06/13 02:06:32;;;;;;;2.70;1.23;;;12.90;99.90;;;;;;5021221;28;20091;-89
2023/06/13 02:08:58;;;;;;;5.88;1.40;;;13.00;99.90;;;;;;5036214;28;20531;-91
2023/06/13 02:11:25;;;;;;;7.22;1.13;;;12.90;99.90;;;;;;5035673;28;20034;-94
2023/06/13 02:13:50;;;;;;;5.20;1.00;;;12.90;99.90;;;;;;5018819;28;20045;-94
2023/06/13 02:16:25;;;;;;;;;;;12.90;99.90;;;;;;5027893;28;20092;-91
2023/06/13 02:18:51;;;;;;;2.78;0.98;;;12.90;99.90;;;;;;5020461;28;19972;-92
2023/06/13 02:21:17;;;;;;;7.63;1.00;;;12.90;99.90;;;;;;5017868;28;20018;-94
2023/06/13 02:23:42;;;;;;;;;;;12.90;99.90;;;;;;5017944;28;20032;-91
2023/06/13 02:26:08;;;;;;;7.10;1.38;;;12.90;99.90;;;;;;5017935;28;19917;-91
2023/06/13 02:28:34;;;;;;;;;;;12.90;99.90;;;;;;5018100;28;20029;-89
2023/06/13 02:30:59;;;;;;;4.50;1.00;;;12.90;99.90;;;;;;5018029;28;19909;-95
2023/06/13 02:33:25;;;;;;;;;;;12.90;99.90;;;;;;5018054;28;20536;-93
2023/06/13 02:35:51;;;;;;;3.63;0.88;;;12.80;99.90;;;;;;5017269;28;19905;-95
2023/06/13 02:38:18;;;;;;;;;;;12.80;99.90;;;;;;5035419;28;20024;-91
2023/06/13 02:40:44;;;;;;;4.63;1.30;;;12.80;99.90;;;;;;5017489;28;19913;-89
2023/06/13 02:43:10;;;;;;;;;;;12.80;99.90;;;;;;5035124;28;20026;-92
2023/06/13 02:45:38;;;;;;;3.45;1.10;;;12.80;99.90;;;;;;5016578;28;19924;-91
2023/06/13 02:48:04;;;;;;;4.25;1.30;;;12.80;99.90;;;;;;5017109;28;20028;-88
2023/06/13 02:50:30;;;;;;;;;;;12.80;99.90;;;;;;5017494;28;20116;-89
2023/06/13 02:52:55;;;;;;;3.65;0.90;;;12.80;99.90;;;;;;5017208;28;20273;-93
2023/06/13 02:55:21;;;;;;;;;;;12.80;99.90;;;;;;5017562;28;20486;-89
2023/06/13 02:57:47;;;;;;;3.35;1.05;;;12.80;99.90;;;;;;5017067;28;19909;-91
2023/06/13 03:00:13;;;;;;;;;;;12.80;99.90;;;;;;5016762;28;20033;-91
2023/06/13 03:02:38;;;;;;;4.22;1.10;;;12.70;99.90;;;;;;5017150;28;20473;-90
2023/06/13 03:05:06;;;;;;;;;;;12.80;99.90;;;;;;5017342;28;20505;-90
2023/06/13 03:07:31;;;;;;;2.83;0.90;;;12.80;99.90;;;;;;5034525;28;19995;-92
2023/06/13 03:10:00;;;;;;;;;;;12.70;99.90;;;;;;5034700;28;20438;-91
2023/06/13 03:12:26;;;;;;;2.40;1.27;;;12.80;99.90;;;;;;5033765;28;20381;-91
2023/06/13 03:14:52;;;;;;;;;;;12.80;99.90;;;;;;5016527;28;20153;-91
2023/06/13 03:17:17;;;;;;;5.25;1.05;;;12.80;99.90;;;;;;5034372;28;19913;-90
2023/06/13 03:19:43;;;;;;;;;;;12.80;99.90;;;;;;5017232;28;20095;-88
2023/06/13 03:22:13;;;;;;;4.72;1.23;;;12.80;99.90;;;;;;5034243;28;19974;-90
2023/06/13 03:24:40;;;;;;;4.88;1.30;;;12.80;99.90;;;;;;5015884;28;20543;-90
2023/06/13 03:27:06;;;;;;;2.05;0.90;;;12.80;99.90;;;;;;5033887;28;20037;-90
2023/06/13 03:29:32;;;;;;;5.40;0.98;;;12.80;99.90;;;;;;5016046;28;20022;-90
2023/06/13 03:31:58;;;;;;;;;;;12.80;99.90;;;;;;5034238;28;20025;-91
2023/06/13 03:34:25;;;;;;;3.05;1.20;;;12.90;99.90;;;;;;5033231;28;19909;-91
2023/06/13 03:36:51;;;;;;;5.45;1.10;;;12.90;99.90;;;;;;5033743;28;20017;-92
2023/06/13 03:39:16;;;;;;;;;;;12.90;99.90;;;;;;5032842;28;20037;-89
2023/06/13 03:41:42;;;;;;;3.33;1.02;;;13.00;99.90;;;;;;5035037;28;19905;-90
2023/06/13 03:44:07;;;;;;;;;;;13.00;99.90;;;;;;5048982;28;20355;-90
2023/06/13 03:46:33;;;;;;;8.38;0.80;;;13.00;99.90;;;;;;5025067;28;19960;-91
2023/06/13 03:48:59;;;;;;;;;;;13.00;99.90;;;;;;5016928;28;20017;-91
2023/06/13 03:51:24;;;;;;;2.70;0.85;;;13.10;99.90;;;;;;5016391;28;19905;-91
2023/06/13 03:53:50;;;;;;;;;;;13.10;99.90;;;;;;5016937;28;20033;-90
2023/06/13 03:56:16;;;;;;;4.32;0.80;;;13.20;99.90;;;;;;5016260;28;19904;-90
2023/06/13 03:58:42;;;;;;;2.85;1.00;;;13.20;99.90;;;;;;5016546;28;20116;-90
2023/06/13 04:01:10;;;;;;;;;;;13.30;99.90;;;;;;5016735;28;20183;-88
2023/06/13 04:03:39;;;;;;;1.90;0.90;;;13.40;99.90;;;;;;5016412;28;19959;-90
2023/06/13 04:06:06;;;;;;;2.20;0.82;;;13.40;99.90;;;;;;5033577;28;20041;-90
2023/06/13 04:08:32;;;;;;;1.67;0.82;;;13.50;99.90;;;;;;5018382;28;20079;-89
2023/06/13 04:10:57;;;;;;;;;;;13.60;99.90;;;;;;5016270;28;20033;-89
2023/06/13 04:13:23;;;;;;;2.25;0.70;;;13.60;99.90;;;;;;5023257;28;19963;-91
2023/06/13 04:15:48;;;;;;;;;;;13.70;99.90;;;;;;5016347;28;20067;-90
2023/06/13 04:18:17;;;;;;;2.72;0.75;;;13.70;99.90;;;;;;5015739;28;19905;-91
2023/06/13 04:20:43;;;;;;;3.05;0.90;;;13.70;99.20;;;;;;5015214;28;20095;-91
2023/06/13 04:23:08;;;;;;;2.30;0.85;;;13.80;98.50;;;;;;5015474;28;20026;-91
2023/06/13 04:25:35;;;;;;;;;;;13.80;99.00;;;;;;5015341;28;20052;-91
2023/06/13 04:28:02;;;;;;;5.40;0.98;;;13.90;97.80;;;;;;5015754;28;19905;-91
2023/06/13 04:30:28;;;;;;;2.08;0.70;;;14.00;97.40;;;;;;5015843;28;20444;-90
2023/06/13 04:32:57;;;;;;;2.85;0.70;;;14.00;97.40;;;;;;5015806;28;20072;-91
2023/06/13 04:35:23;;;;;;;2.72;0.82;;;14.10;97.30;;;;;;5015889;28;20079;-89
2023/06/13 04:37:51;;;;;;;8.15;0.90;;;14.20;95.40;;;;;;5015724;28;20025;-90
2023/06/13 04:40:18;;;;;;;4.63;0.60;;;14.30;94.70;;;;;;5015793;28;20030;-92
2023/06/13 04:42:52;;;;;;;2.75;0.50;;;14.50;94.60;;;;;;5015622;28;20372;-89
2023/06/13 04:45:21;;;;;;;2.58;0.88;;;14.70;94.50;;;;;;5015760;28;20038;-91
2023/06/13 04:47:47;;;;;;;2.95;0.70;;;14.80;93.10;;;;;;5014626;28;20124;-91
2023/06/13 04:50:13;;;;;;;3.30;0.80;;;15.10;92.70;;;;;;5015503;28;20057;-90
2023/06/13 04:52:41;;;;;;;;;;;15.20;91.50;;;;;;5016040;28;20045;-91
2023/06/13 04:55:07;;;;;;;1.80;0.70;;;15.30;91.10;;;;;;5015529;28;19905;-92
2023/06/13 04:57:32;;;;;;;;;;;15.50;91.80;;;;;;5016038;28;20076;-91
2023/06/13 04:59:59;;;;;;;4.25;0.80;;;15.50;88.90;;;;;;5015372;28;20016;-91
2023/06/13 05:02:25;;;;;;;11.65;0.93;;;15.50;91.70;;;;;;5032764;28;20064;-90
2023/06/13 05:04:55;;;;;;;2.28;0.85;;;15.50;93.40;;;;;;5032640;28;20489;-89
2023/06/13 05:07:21;;;;;;;2.28;0.57;;;15.50;94.90;;;;;;5014909;28;20040;-90
2023/06/13 05:09:48;;;;;;;2.33;0.63;;;15.50;92.80;;;;;;5014464;28;20477;-91
2023/06/13 05:12:13;;;;;;;7.35;0.90;;;15.50;87.60;;;;;;5015371;28;20033;-92
2023/06/13 05:14:42;;;;;;;2.15;0.80;;;15.60;90.20;;;;;;5015281;28;20703;-90
2023/06/13 05:17:12;;;;;;;4.60;0.82;;;15.60;90.00;;;;;;5013210;28;20036;-91
2023/06/13 05:19:38;;;;;;;6.88;1.95;;;15.60;86.00;;;;;;5031759;28;20539;-91
2023/06/13 05:22:05;;;;;;;2.05;0.73;;;15.50;85.00;;;;;;5031140;28;20036;-91
2023/06/13 05:24:32;;;;;;;5.13;0.77;;;15.50;84.50;;;;;;5014789;28;20398;-92
2023/06/13 05:26:58;;;;;;;4.78;0.73;;;15.40;83.60;;;;;;5032260;28;20037;-92
2023/06/13 05:29:24;;;;;;;11.80;1.20;;;15.40;85.50;;;;;;5015410;28;20030;-93
2023/06/13 05:31:50;;;;;;;8.77;1.30;;;15.40;86.90;;;;;;5032544;28;20104;-93
2023/06/13 05:34:16;;;;;;;;;;;15.30;87.10;;;;;;5033186;28;20045;-93
2023/06/13 05:36:41;;;;;;;4.15;1.30;;;15.20;89.00;;;;;;5015087;28;20369;-92
2023/06/13 05:39:08;;;;;;;2.83;0.65;;;15.10;90.30;;;;;;5018159;28;20041;-93
2023/06/13 05:41:34;;;;;;;3.00;0.80;;;15.20;90.60;;;;;;5035342;28;20075;-91
2023/06/13 05:44:00;;;;;;;4.72;0.75;;;15.30;91.20;;;;;;5017463;28;20033;-91
2023/06/13 05:46:26;;;;;;;3.65;0.93;;;15.60;91.10;;;;;;5018270;28;20060;-91
2023/06/13 05:48:51;;;;;;;5.47;1.83;;;15.90;87.00;;;;;;5016756;28;20056;-91
2023/06/13 05:51:17;;;;;;;2.58;0.90;;;16.10;83.80;;;;;;5017319;28;20044;-91
2023/06/13 05:53:43;;;;;;;5.53;1.00;;;16.30;85.50;;;;;;5017967;28;20025;-92
2023/06/13 05:56:09;;;;;;;1.63;0.73;;;16.70;83.00;;;;;;5017560;28;20032;-89
2023/06/13 05:58:35;;;;;;;1.60;0.70;;;17.60;76.90;;;;;;5016934;28;20112;-91
2023/06/13 06:01:01;;;;;;;1.83;0.70;;;18.50;70.80;;;;;;5019809;28;20025;-93
2023/06/13 06:03:28;;;;;;;3.38;0.60;;;19.70;66.70;;;;;;5018465;28;20638;-91
2023/06/13 06:05:53;;;;;;;1.80;0.80;;;21.00;56.80;;;;;;5017283;28;20029;-89
2023/06/13 06:08:19;;;;;;;1.38;0.60;;;22.20;51.30;;;;;;5017497;28;20021;-90
2023/06/13 06:10:45;;;;;;;2.13;0.60;;;22.90;46.80;;;;;;5018622;28;20025;-90
2023/06/13 06:13:11;;;;;;;10.88;0.75;;;23.30;44.60;;;;;;5016728;28;20040;-91
2023/06/13 06:15:37;;;;;;;2.20;0.80;;;23.70;42.40;;;;;;5016329;28;20588;-88
2023/06/13 06:18:03;;;;;;;1.75;0.60;;;23.80;42.30;;;;;;5016600;28;20231;-89
2023/06/13 06:20:28;;;;;;;3.33;0.70;;;24.40;42.00;;;;;;5034279;28;20036;-88
2023/06/13 06:22:54;;;;;;;0.90;0.50;;;24.70;39.70;;;;;;5016271;28;20036;-90
2023/06/13 06:25:20;;;;;;;3.72;0.52;;;24.90;39.10;;;;;;5033785;28;20405;-90
2023/06/13 06:27:47;;;;;;;1.20;0.50;;;25.70;37.30;;;;;;5016231;28;20033;-90
2023/06/13 06:30:13;;;;;;;1.90;0.60;;;25.60;37.80;;;;;;5016478;28;20072;-89
2023/06/13 06:32:39;;;;;;;1.27;0.70;;;25.80;37.20;;;;;;5016921;28;20401;-89
2023/06/13 06:35:05;;;;;;;2.83;0.70;;;25.40;36.40;;;;;;5034618;28;20056;-88
2023/06/13 06:37:32;;;;;;;2.70;0.65;;;25.60;37.40;;;;;;5016743;28;20053;-91
2023/06/13 06:39:57;;;;;;;1.30;0.60;;;25.70;36.10;;;;;;5016755;28;20113;-90
2023/06/13 06:42:23;;;;;;;6.90;0.75;;;25.60;36.30;;;;;;5034819;28;20077;-88
2023/06/13 06:44:49;;;;;;;3.35;0.60;;;25.20;36.90;;;;;;5016808;28;20558;-91
2023/06/13 06:47:15;;;;;;;3.25;0.52;;;25.20;36.20;;;;;;5017215;28;20044;-90
2023/06/13 06:49:41;;;;;;;1.83;0.50;;;25.60;35.70;;;;;;5036354;28;20069;-87
2023/06/13 06:52:07;;;;;;;4.07;0.68;;;25.10;35.90;;;;;;5039704;28;20041;-88
2023/06/13 06:54:33;;;;;;;1.77;0.65;;;25.10;37.30;;;;;;5053043;28;20024;-90
2023/06/13 06:56:58;;;;;;;4.40;0.50;;;24.90;37.40;;;;;;5034069;28;20034;-88
2023/06/13 06:59:24;;;;;;;5.45;0.70;;;25.40;36.70;;;;;;5016026;28;20101;-89
2023/06/13 07:01:50;;;;;;;2.25;0.55;;;25.90;37.70;;;;;;5015891;28;20022;-89
2023/06/13 07:04:16;;;;;;;2.28;0.70;;;26.20;35.60;;;;;;5033042;28;20036;-89
2023/06/13 07:06:42;;;;;;;2.80;0.63;;;26.00;35.90;;;;;;5015720;28;20076;-88
2023/06/13 07:09:10;;;;;;;1.98;0.70;;;26.50;34.80;;;;;;5033114;28;20057;-89
2023/06/13 07:11:36;;;;;;;1.33;0.50;;;26.30;35.30;;;;;;5033159;28;20382;-90
2023/06/13 07:14:01;;;;;;;1.30;0.50;;;25.90;35.50;;;;;;5015699;28;20080;-89
2023/06/13 07:16:27;;;;;;;3.60;0.60;;;25.70;36.30;;;;;;5015576;28;20112;-90
2023/06/13 07:18:53;;;;;;;1.23;0.60;;;25.80;35.50;;;;;;5015212;28;20033;-89
2023/06/13 07:21:19;;;;;;;2.92;0.65;;;25.80;35.80;;;;;;5015642;28;20027;-89
2023/06/13 07:23:44;;;;;;;2.15;0.50;;;26.10;36.30;;;;;;5015216;28;20041;-88
2023/06/13 07:26:11;;;;;;;0.88;0.40;;;26.10;36.10;;;;;;5014908;28;20039;-88
2023/06/13 07:28:37;;;;;;;1.15;0.50;;;26.00;35.40;;;;;;5032696;28;20075;-88
2023/06/13 07:31:03;;;;;;;4.55;0.52;;;26.10;35.30;;;;;;5014938;28;20029;-89
2023/06/13 07:33:28;;;;;;;1.95;0.50;;;26.00;36.30;;;;;;5032442;28;20025;-89
2023/06/13 07:35:56;;;;;;;2.95;1.10;;;26.00;36.10;;;;;;5034254;28;20060;-90
2023/06/13 07:38:22;;;;;;;3.40;0.60;;;26.20;37.20;;;;;;5014967;28;20133;-89
2023/06/13 07:40:47;;;;;;;5.72;1.20;;;26.60;36.50;;;;;;5014986;28;20586;-91
2023/06/13 07:43:13;;;;;;;1.95;0.70;;;26.90;34.50;;;;;;5015213;28;20021;-90
2023/06/13 07:45:39;;;;;;;0.85;0.70;;;26.80;35.50;;;;;;5032221;28;20087;-88
2023/06/13 07:48:05;;;;;;;1.75;0.55;;;26.90;34.40;;;;;;5032073;28;20123;-90
2023/06/13 07:50:30;;;;;;;0.80;0.50;;;26.40;34.80;;;;;;5032276;28;20029;-89
2023/06/13 07:52:56;;;;;;;2.47;0.55;;;26.50;35.30;;;;;;5032382;28;20036;-88
2023/06/13 07:55:22;;;;;;;1.10;0.45;;;26.30;36.00;;;;;;5036199;28;20053;-89
2023/06/13 07:57:47;;;;;;;1.75;0.60;;;26.30;35.80;;;;;;5015112;28;20497;-88
2023/06/13 08:00:17;;;;;;;1.90;0.50;;;26.60;35.70;;;;;;5014752;28;20076;-90
2023/06/13 08:02:46;;;;;;;2.42;0.80;;;26.40;35.60;;;;;;5033057;28;20108;-89
2023/06/13 08:05:13;;;;;;;2.17;0.70;;;26.30;35.90;;;;;;5037205;28;20482;-89
2023/06/13 08:07:39;;;;;;;0.73;0.50;;;25.90;36.40;;;;;;5032054;28;20083;-89
2023/06/13 08:10:06;;;;;;;4.07;0.40;;;26.00;37.00;;;;;;5014359;28;20433;-89
2023/06/13 08:12:32;;;;;;;1.27;0.52;;;26.30;35.60;;;;;;5014907;28;20033;-87
2023/06/13 08:14:57;;;;;;;6.03;0.60;;;26.10;36.00;;;;;;5031495;28;20079;-87
2023/06/13 08:17:24;;;;;;;2.60;0.73;;;26.30;35.70;;;;;;5031573;28;20040;-87
2023/06/13 08:19:50;;;;;;;1.90;0.63;;;26.30;35.90;;;;;;5031475;28;20379;-91
2023/06/13 08:22:17;;;;;;;1.88;0.60;;;26.30;34.50;;;;;;5031524;28;20425;-89
2023/06/13 08:24:43;;;;;;;3.67;0.60;;;26.50;34.70;;;;;;5014436;28;20021;-88
2023/06/13 08:27:10;;;;;;;0.80;0.60;;;26.50;36.90;;;;;;5032505;28;20081;-88
2023/06/13 08:29:36;;;;;;;0.75;0.40;;;27.00;35.00;;;;;;5031474;28;20032;-89
2023/06/13 08:32:02;;;;;;;0.77;0.50;;;26.90;34.30;;;;;;5031145;28;20033;-87
2023/06/13 08:34:27;;;;;;;2.25;0.50;;;27.00;34.90;;;;;;5031808;28;20025;-88
2023/06/13 08:36:53;;;;;;;0.98;0.40;;;27.50;33.70;;;;;;5013783;28;20508;-89
2023/06/13 08:39:20;;;;;;;1.13;0.50;;;27.20;33.70;;;;;;5013179;28;20029;-90
2023/06/13 08:41:46;;;;;;;1.05;0.60;;;27.10;32.70;;;;;;5014042;28;20025;-88
2023/06/13 08:44:12;;;;;;;0.80;0.50;;;26.80;34.00;;;;;;5031752;28;20104;-89
2023/06/13 08:46:37;;;;;;;0.70;0.50;;;26.60;33.10;;;;;;5014108;28;20507;-89
2023/06/13 08:49:03;;;;;;;1.58;0.50;;;26.10;33.60;;;;;;5013697;28;20116;-89
2023/06/13 08:51:31;;;;;;;1.35;0.60;;;26.10;35.40;;;;;;5014038;28;20449;-89
2023/06/13 08:54:05;;;;;;;3.33;0.40;;;25.80;35.10;;;;;;5013891;28;20033;-88
2023/06/13 08:56:37;;;;;;;3.15;0.50;;;25.70;35.60;;;;;;5014327;28;20087;-88
2023/06/13 08:59:14;;;;;;;0.65;0.47;;;25.90;36.10;;;;;;5013897;28;20053;-90
2023/06/13 09:01:43;;;;;;;3.28;0.60;;;26.30;35.90;;;;;;5013941;28;20040;-88
2023/06/13 09:04:11;;;;;;;0.88;0.55;;;26.90;35.00;;;;;;5031027;28;20567;-89
2023/06/13 09:06:37;;;;;;;0.77;0.50;;;27.10;36.10;;;;;;5013619;28;20042;-89
2023/06/13 09:09:06;;;;;;;1.13;0.40;;;27.70;33.80;;;;;;5013625;28;20033;-88
2023/06/13 09:11:34;;;;;;;1.27;0.43;;;27.60;33.00;;;;;;5013945;28;20025;-89
2023/06/13 09:14:03;;;;;;;1.30;0.60;;;27.40;32.60;;;;;;5017425;28;20053;-88
2023/06/13 09:16:30;;;;;;;1.48;0.65;;;27.30;33.40;;;;;;5018227;28;20039;-88
2023/06/13 09:18:57;;;;;;;1.80;0.40;;;27.30;33.50;;;;;;5018246;28;20072;-87
2023/06/13 09:21:23;;;;;;;0.85;0.50;;;27.20;33.90;;;;;;5017916;28;20120;-89
2023/06/13 09:23:49;;;;;;;1.80;0.45;;;26.50;33.90;;;;;;5018479;28;20120;-87
2023/06/13 09:26:16;;;;;;;3.03;0.50;;;26.20;33.60;;;;;;5017279;28;20510;-89
2023/06/13 09:28:45;;;;;;;1.30;0.50;;;26.60;35.60;;;;;;5017722;28;20022;-88
2023/06/13 09:31:11;;;;;;;3.83;0.68;;;26.90;33.80;;;;;;5017428;28;20121;-89
2023/06/13 09:33:37;;;;;;;1.55;0.55;;;27.50;35.00;;;;;;5017485;28;20116;-90
2023/06/13 09:36:07;;;;;;;2.80;0.60;;;27.60;33.00;;;;;;5017608;28;20482;-89
2023/06/13 09:38:40;;;;;;;14.32;13.00;;;27.80;33.00;;;;;;5017489;28;20508;-88
2023/06/13 09:41:07;;;;;;;3.15;2.53;;;27.90;33.10;;;;;;5018920;28;20023;-88
2023/06/13 09:43:33;;;;;;;0.90;0.65;;;27.50;33.10;;;;;;5017329;28;20029;-89
2023/06/13 09:46:00;;;;;;;1.70;0.60;;;27.30;33.50;;;;;;5017736;28;20029;-89
2023/06/13 09:48:25;;;;;;;0.60;0.40;;;27.70;33.80;;;;;;5019481;28;20097;-88
2023/06/13 09:50:52;;;;;;;1.25;0.57;;;27.80;31.50;;;;;;5017468;28;20057;-88
2023/06/13 09:53:18;;;;;;;0.50;0.38;;;27.10;33.40;;;;;;5017682;28;20116;-88
2023/06/13 09:55:44;;;;;;;0.77;0.50;;;26.70;33.00;;;;;;5020470;28;20061;-89
2023/06/13 09:58:10;;;;;;;2.42;0.80;;;25.80;34.30;;;;;;5041718;28;20033;-89
2023/06/13 10:00:36;;;;;;;1.45;0.60;;;25.30;36.10;;;;;;5038528;28;20063;-87
2023/06/13 10:03:03;;;;;;;0.50;0.40;;;24.60;34.50;;;;;;5021670;28;20028;-88
2023/06/13 10:05:29;;;;;;;0.88;0.40;;;23.80;36.40;;;;;;5018745;28;20029;-90
2023/06/13 10:07:55;;;;;;;0.63;0.40;;;23.40;37.40;;;;;;5017259;28;20045;-87
2023/06/13 10:10:21;;;;;;;1.95;0.98;;;22.90;36.30;;;;;;5016473;28;20495;-88
2023/06/13 10:12:58;;;;;;;2.10;0.50;;;22.70;37.10;;;;;;5016956;28;20581;-87
2023/06/13 10:15:33;;;;;;;1.85;0.63;;;22.60;37.80;;;;;;5016623;28;20052;-87
2023/06/13 10:18:05;;;;;;;1.80;0.50;;;22.70;36.90;;;;;;5016512;28;20026;-89
2023/06/13 10:20:32;;;;;;;0.90;0.50;;;22.40;38.50;;;;;;5017538;28;20057;-88
2023/06/13 10:22:59;;;;;;;14.45;13.23;;;22.50;37.70;;;;;;5034420;28;20508;-87
2023/06/13 10:25:28;;;;;;;2.65;1.80;;;22.70;39.20;;;;;;5015468;28;20486;-86
2023/06/13 10:27:59;;;;;;;1.10;0.52;;;23.10;40.20;;;;;;5016258;28;20135;-87
2023/06/13 10:30:43;;;;;;;0.85;0.40;;;23.40;41.40;;;;;;5016252;28;20389;-89
2023/06/13 10:33:50;;;;;;;0.70;0.40;;;23.60;40.10;;;;;;5016982;28;20025;-89
2023/06/13 10:36:50;;;;;;;0.68;0.40;;;23.60;39.10;;;;;;4981251;28;20037;-89
2023/06/13 10:39:29;;;;;;;0.60;0.40;;;23.70;38.70;;;;;;5034631;28;20028;-87
2023/06/13 10:41:57;;;;;;;3.83;1.05;;;23.80;39.10;;;;;;5033412;28;20555;-87
2023/06/13 10:45:01;;;;;;;0.98;0.57;;;23.80;37.70;;;;;;5017728;28;20031;-88
2023/06/13 10:47:29;;;;;;;3.33;0.68;;;23.90;38.70;;;;;;5033747;28;20029;-88
2023/06/13 10:49:56;;;;;;;1.00;0.50;;;24.00;38.80;;;;;;5033266;28;20123;-87
2023/06/13 10:52:22;;;;;;;0.88;0.50;;;24.20;36.90;;;;;;5033577;28;20056;-87
2023/06/13 10:54:52;;;;;;;1.33;0.50;;;24.10;37.40;;;;;;5016352;28;20029;-88
2023/06/13 10:57:18;;;;;;;1.48;0.95;;;23.70;37.10;;;;;;5033684;28;20029;-88
2023/06/13 10:59:47;;;;;;;2.17;0.55;;;23.40;38.00;;;;;;5033344;28;20041;-86
2023/06/13 11:02:19;;;;;;;1.23;0.60;;;23.40;39.70;;;;;;5015649;28;20025;-87
2023/06/13 11:04:52;;;;;;;2.40;0.60;;;23.40;40.20;;;;;;5015420;28;20033;-85
2023/06/13 11:07:23;;;;;;;0.50;0.40;;;23.40;39.90;;;;;;5032483;28;20040;-87
2023/06/13 11:10:03;;;;;;;0.95;0.50;;;23.30;39.90;;;;;;5016383;28;20029;-87
2023/06/13 11:12:29;;;;;;;0.95;0.60;;;23.50;40.50;;;;;;5015355;28;20033;-87
2023/06/13 11:14:59;;;;;;;0.88;0.50;;;23.60;39.70;;;;;;5014792;28;20587;-86
2023/06/13 11:17:26;;;;;;;2.15;1.10;;;23.40;38.50;;;;;;5015127;28;20044;-86
2023/06/13 11:19:53;;;;;;;0.60;0.30;;;23.20;38.00;;;;;;5015658;28;20080;-87
2023/06/13 11:22:21;;;;;;;2.88;0.70;;;23.20;39.90;;;;;;5015477;28;20029;-87
2023/06/13 11:24:48;;;;;;;1.00;0.50;;;23.20;41.50;;;;;;5016365;28;20049;-88
2023/06/13 11:27:16;;;;;;;3.80;0.70;;;23.10;41.10;;;;;;5034886;28;20037;-87
2023/06/13 11:29:45;;;;;;;3.30;0.70;;;23.00;41.70;;;;;;5015328;28;20025;-88
2023/06/13 11:32:12;;;;;;;0.65;0.35;;;22.90;42.60;;;;;;5016593;28;20029;-87
2023/06/13 11:35:00;;;;;;;1.27;0.50;;;23.10;43.40;;;;;;5013942;28;20231;-87
2023/06/13 11:37:36;;;;;;;3.15;0.68;;;23.30;41.60;;;;;;5014502;28;20033;-87
2023/06/13 11:40:07;;;;;;;1.17;0.50;;;23.50;41.10;;;;;;5016054;28;20049;-88
2023/06/13 11:42:32;;;;;;;0.85;0.50;;;23.60;42.00;;;;;;5016411;28;20099;-88
2023/06/13 11:44:58;;;;;;;1.38;0.47;;;23.70;41.70;;;;;;5014757;28;20065;-86
2023/06/13 11:47:24;;;;;;;3.97;0.47;;;23.90;42.50;;;;;;5031889;28;20116;-89
2023/06/13 11:49:59;;;;;;;1.00;0.40;;;24.10;43.10;;;;;;5031735;28;20096;-86
2023/06/13 11:52:25;;;;;;;2.55;0.30;;;24.60;40.90;;;;;;5032143;28;20029;-87
2023/06/13 11:54:52;;;;;;;0.40;0.30;;;24.70;39.20;;;;;;5032279;28;20033;-87
2023/06/13 11:57:18;;;;;;;1.30;0.40;;;24.90;39.10;;;;;;5014360;28;20022;-88
2023/06/13 11:59:43;;;;;;;0.90;0.32;;;24.90;39.10;;;;;;5016566;28;20032;-88
2023/06/13 12:02:12;;;;;;;0.85;0.50;;;24.80;39.10;;;;;;5015913;28;20033;-88
2023/06/13 12:04:41;;;;;;;1.23;0.40;;;24.60;39.30;;;;;;5016013;28;20025;-89
2023/06/13 12:07:07;;;;;;;4.28;0.50;;;24.30;38.10;;;;;;5015063;28;20044;-89
2023/06/13 12:09:33;;;;;;;0.80;0.50;;;24.10;38.50;;;;;;5014416;28;20104;-89
2023/06/13 12:11:59;;;;;;;0.90;0.82;;;23.90;38.70;;;;;;5014843;28;20338;-88
2023/06/13 12:14:25;;;;;;;0.88;0.50;;;23.90;39.20;;;;;;5031955;28;20052;-90
2023/06/13 12:16:52;;;;;;;1.17;0.60;;;23.80;39.10;;;;;;5014590;28;20124;-87
2023/06/13 12:19:20;;;;;;;1.73;0.50;;;23.60;40.30;;;;;;5013905;28;20029;-88
2023/06/13 12:21:47;;;;;;;0.90;0.50;;;23.70;40.70;;;;;;5031695;28;20028;-87
2023/06/13 12:24:13;;;;;;;2.88;0.60;;;24.00;41.60;;;;;;5032211;28;20024;-89
2023/06/13 12:26:44;;;;;;;0.73;0.43;;;24.20;39.90;;;;;;5014342;28;20045;-88
2023/06/13 12:29:11;;;;;;;1.63;0.50;;;24.10;39.30;;;;;;5013895;28;20021;-88
2023/06/13 12:31:44;;;;;;;0.95;0.43;;;24.20;38.90;;;;;;5031406;28;20029;-87
2023/06/13 12:34:16;;;;;;;1.50;0.50;;;24.20;39.70;;;;;;5031558;28;20428;-87
2023/06/13 12:36:46;;;;;;;2.05;0.60;;;24.10;39.40;;;;;;5014431;28;20087;-88
2023/06/13 12:39:16;;;;;;;2.78;1.83;;;24.00;39.20;;;;;;5013592;28;20040;-90
2023/06/13 12:41:47;;;;;;;22.08;19.67;;;24.20;40.40;;;;;;5030727;28;20394;-87
2023/06/13 12:44:13;;;;;;;1.05;0.50;;;23.90;38.20;;;;;;5032737;28;20023;-87
2023/06/13 12:46:39;;;;;;;0.98;0.60;;;23.60;36.50;;;;;;5031966;28;20045;-88
2023/06/13 12:49:09;;;;;;;3.20;0.70;;;23.20;39.40;;;;;;5035479;28;20397;-88
2023/06/13 12:51:43;;;;;;;1.23;0.50;;;22.90;41.90;;;;;;5017809;28;20022;-88
2023/06/13 12:54:17;;;;;;;3.33;0.52;;;23.10;40.90;;;;;;5017971;28;20033;-88
2023/06/13 12:56:57;;;;;;;5.47;0.57;;;23.20;40.60;;;;;;5035634;28;20041;-89
2023/06/13 12:59:37;;;;;;;1.02;0.40;;;23.30;39.70;;;;;;5018194;28;20029;-89